Time;durP1;ratioP1;P1;durP2;ratioP2;P2;SDS_P1;SDS_P2;PMS_P1;PMS_P2;Temp;Humidity;BMP_temperature;BMP_pressure;BME280_temperature;BME280_humidity;BME280_pressure;Samples;Min_cycle;Max_cycle;Signal;HPM_P1;HPM_P2
2022/09/22 00:00:53;;;;;;;2.33;1.63;;;12.50;99.90;;;;;;4036653;29;20124;-66
2022/09/22 00:02:58;;;;;;;2.92;2.00;;;12.50;99.90;;;;;;4037793;29;20451;-67
2022/09/22 00:04:59;;;;;;;2.35;1.80;;;12.40;99.90;;;;;;4044355;29;20097;-66
2022/09/22 00:07:00;;;;;;;2.38;1.80;;;12.40;99.90;;;;;;4042491;29;20036;-67
2022/09/22 00:09:02;;;;;;;3.22;1.70;;;12.40;99.90;;;;;;4040723;29;20037;-66
2022/09/22 00:11:23;;;;;;;2.13;1.45;;;12.40;99.90;;;;;;4043329;29;20091;-67
2022/09/22 00:13:24;;;;;;;2.72;1.80;;;12.40;99.90;;;;;;4045934;29;20064;-66
2022/09/22 00:15:25;;;;;;;2.78;1.67;;;12.40;99.90;;;;;;4043633;29;20500;-67
2022/09/22 00:17:25;;;;;;;5.00;1.83;;;12.30;99.90;;;;;;4039717;29;20028;-67
2022/09/22 00:19:29;;;;;;;3.20;1.80;;;12.30;99.90;;;;;;4041443;29;20053;-67
2022/09/22 00:21:31;;;;;;;2.92;1.95;;;12.30;99.90;;;;;;4040234;29;20060;-66
2022/09/22 00:23:31;;;;;;;3.03;1.90;;;12.30;99.90;;;;;;4040041;29;20096;-67
2022/09/22 00:25:32;;;;;;;2.33;1.92;;;12.20;99.90;;;;;;4043256;29;20068;-67
2022/09/22 00:27:33;;;;;;;3.72;2.13;;;12.20;99.90;;;;;;4046344;29;20041;-67
2022/09/22 00:29:35;;;;;;;2.65;1.58;;;12.20;99.90;;;;;;4041972;29;20045;-67
2022/09/22 00:31:37;;;;;;;3.35;2.17;;;12.30;99.90;;;;;;4044069;29;20041;-66
2022/09/22 00:33:40;;;;;;;3.45;2.05;;;12.20;99.90;;;;;;4043360;29;20052;-67
2022/09/22 00:35:40;;;;;;;3.42;2.20;;;12.30;99.90;;;;;;4035954;29;20037;-67
2022/09/22 00:37:41;;;;;;;5.57;2.58;;;12.20;99.90;;;;;;4042195;29;20033;-66
2022/09/22 00:39:43;;;;;;;4.22;2.13;;;12.20;99.90;;;;;;4035830;29;20127;-65
2022/09/22 00:41:47;;;;;;;4.18;2.22;;;12.30;99.90;;;;;;4039341;29;20044;-66
2022/09/22 00:44:07;;;;;;;3.50;2.03;;;12.20;99.90;;;;;;4043890;29;20467;-66
2022/09/22 00:46:21;;;;;;;2.65;1.90;;;12.20;99.90;;;;;;4039158;29;20504;-67
2022/09/22 00:48:23;;;;;;;2.92;2.10;;;12.20;99.90;;;;;;4037936;29;20485;-67
2022/09/22 00:50:24;;;;;;;3.17;1.95;;;12.20;99.90;;;;;;4038622;29;20040;-66
2022/09/22 00:52:31;;;;;;;2.40;2.03;;;12.10;99.90;;;;;;4039315;29;20437;-66
2022/09/22 00:54:32;;;;;;;3.08;2.10;;;12.10;99.90;;;;;;4046216;29;20057;-66
2022/09/22 00:56:41;;;;;;;3.17;1.95;;;12.10;99.90;;;;;;4036094;29;20045;-66
2022/09/22 00:58:50;;;;;;;2.55;1.77;;;12.10;99.90;;;;;;4041873;29;20033;-67
2022/09/22 01:00:50;;;;;;;2.03;1.75;;;12.00;99.90;;;;;;4041935;29;20060;-66
2022/09/22 01:02:55;;;;;;;2.75;2.13;;;12.00;99.90;;;;;;4046047;29;20400;-66
2022/09/22 01:04:56;;;;;;;3.15;2.13;;;12.00;99.90;;;;;;4046617;29;20051;-67
2022/09/22 01:06:58;;;;;;;3.50;2.42;;;12.00;99.90;;;;;;4037249;29;20033;-66
2022/09/22 01:09:00;;;;;;;2.80;1.90;;;12.00;99.90;;;;;;4034423;29;20052;-67
2022/09/22 01:11:01;;;;;;;2.53;2.22;;;12.00;99.90;;;;;;4039962;29;20285;-67
2022/09/22 01:13:34;;;;;;;2.90;2.10;;;12.00;99.90;;;;;;4036518;29;20041;-66
2022/09/22 01:15:35;;;;;;;3.10;1.98;;;12.00;99.90;;;;;;4037718;29;20158;-66
2022/09/22 01:18:13;;;;;;;2.75;1.65;;;11.90;99.90;;;;;;4044195;29;20503;-67
2022/09/22 01:20:32;;;;;;;2.38;1.70;;;11.90;99.90;;;;;;4043707;29;20032;-67
2022/09/22 01:23:11;;;;;;;2.45;2.00;;;11.90;99.90;;;;;;4047391;29;20100;-66
2022/09/22 01:25:29;;;;;;;3.97;2.15;;;11.90;99.90;;;;;;4064297;29;20406;-67
2022/09/22 01:27:47;;;;;;;3.55;1.98;;;11.90;99.90;;;;;;4044073;29;20040;-66
2022/09/22 01:30:09;;;;;;;3.33;2.17;;;11.90;99.90;;;;;;4042484;29;20091;-66
2022/09/22 01:32:16;;;;;;;2.60;2.00;;;11.80;99.90;;;;;;4043088;29;20488;-66
2022/09/22 01:34:25;;;;;;;4.22;2.40;;;11.80;99.90;;;;;;4043573;29;20041;-66
2022/09/22 01:36:30;;;;;;;2.67;1.90;;;11.80;99.90;;;;;;4041765;29;20037;-67
2022/09/22 01:38:51;;;;;;;3.08;1.88;;;11.80;99.90;;;;;;4042696;29;20064;-66
2022/09/22 01:41:02;;;;;;;4.30;1.95;;;11.70;99.90;;;;;;4046073;29;20029;-66
2022/09/22 01:43:28;;;;;;;2.13;1.80;;;11.70;99.90;;;;;;4046584;29;20092;-66
2022/09/22 01:45:30;;;;;;;2.80;1.90;;;11.70;99.90;;;;;;4040436;29;20188;-66
2022/09/22 01:47:53;;;;;;;3.30;2.30;;;11.60;99.90;;;;;;4045230;29;20032;-66
2022/09/22 01:50:01;;;;;;;2.50;1.95;;;11.70;99.90;;;;;;4039565;29;20033;-67
2022/09/22 01:52:10;;;;;;;2.03;1.70;;;11.60;99.90;;;;;;4038082;29;20045;-66
2022/09/22 01:54:29;;;;;;;1.98;1.60;;;11.60;99.90;;;;;;4044514;29;20041;-66
2022/09/22 01:56:33;;;;;;;2.42;1.95;;;11.60;99.90;;;;;;4042245;29;20064;-66
2022/09/22 01:58:51;;;;;;;2.88;2.15;;;11.60;99.90;;;;;;4043202;29;20424;-67
2022/09/22 02:01:08;;;;;;;3.05;2.03;;;11.60;99.90;;;;;;4043468;29;20033;-66
2022/09/22 02:03:22;;;;;;;2.83;2.05;;;11.60;99.90;;;;;;4047456;29;20465;-66
2022/09/22 02:06:08;;;;;;;5.10;1.90;;;11.60;99.90;;;;;;4045388;29;20072;-66
2022/09/22 02:08:15;;;;;;;2.35;1.83;;;11.50;99.90;;;;;;4044877;29;20389;-67
2022/09/22 02:10:21;;;;;;;2.65;1.90;;;11.50;99.90;;;;;;4044394;29;20088;-67
2022/09/22 02:12:22;;;;;;;2.25;1.75;;;11.50;99.90;;;;;;4043892;29;20029;-67
2022/09/22 02:14:23;;;;;;;1.90;1.70;;;11.50;99.90;;;;;;4047219;29;20016;-67
2022/09/22 02:16:26;;;;;;;3.83;1.73;;;11.50;99.90;;;;;;4040185;29;20523;-66
2022/09/22 02:18:40;;;;;;;3.15;2.10;;;11.40;99.90;;;;;;4058496;29;20264;-66
2022/09/22 02:20:41;;;;;;;2.42;1.63;;;11.40;99.90;;;;;;4043448;29;20381;-66
2022/09/22 02:22:41;;;;;;;2.88;1.85;;;11.40;99.90;;;;;;4045733;29;20089;-66
2022/09/22 02:24:44;;;;;;;3.65;1.73;;;11.40;99.90;;;;;;4042794;29;20037;-67
2022/09/22 02:26:45;;;;;;;2.53;1.90;;;11.40;99.90;;;;;;4048512;29;20112;-66
2022/09/22 02:28:46;;;;;;;3.80;2.00;;;11.40;99.90;;;;;;4049392;29;20053;-66
2022/09/22 02:30:51;;;;;;;2.95;1.98;;;11.40;99.90;;;;;;4042875;29;20116;-66
2022/09/22 02:32:55;;;;;;;2.80;1.83;;;11.40;99.90;;;;;;4040977;29;20029;-66
2022/09/22 02:34:56;;;;;;;4.93;2.05;;;11.30;99.90;;;;;;4042796;29;20037;-66
2022/09/22 02:37:11;;;;;;;3.47;2.10;;;11.30;99.90;;;;;;4045230;29;20120;-66
2022/09/22 02:39:20;;;;;;;3.00;1.73;;;11.30;99.90;;;;;;4045675;29;20396;-66
2022/09/22 02:41:25;;;;;;;3.75;2.17;;;11.30;99.90;;;;;;4041834;29;20365;-66
2022/09/22 02:43:32;;;;;;;3.88;1.83;;;11.30;99.90;;;;;;4045621;29;20400;-66
2022/09/22 02:45:57;;;;;;;3.75;2.20;;;11.20;99.90;;;;;;4046595;29;20036;-66
2022/09/22 02:48:06;;;;;;;3.38;2.20;;;11.20;99.90;;;;;;4044356;29;20061;-67
2022/09/22 02:50:12;;;;;;;2.47;1.83;;;11.20;99.90;;;;;;4041490;29;20480;-66
2022/09/22 02:52:14;;;;;;;4.40;1.70;;;11.20;99.90;;;;;;4043944;29;20037;-66
2022/09/22 02:54:15;;;;;;;3.17;2.17;;;11.20;99.90;;;;;;4044113;29;20064;-66
2022/09/22 02:56:15;;;;;;;2.45;1.73;;;11.20;99.90;;;;;;4043744;29;20060;-66
2022/09/22 02:58:16;;;;;;;1.80;1.60;;;11.20;99.90;;;;;;4044459;29;20042;-67
2022/09/22 03:00:17;;;;;;;4.45;2.05;;;11.20;99.90;;;;;;4039075;29;20045;-66
2022/09/22 03:02:17;;;;;;;2.25;1.80;;;11.20;99.90;;;;;;4044058;29;20421;-67
2022/09/22 03:04:18;;;;;;;1.95;1.50;;;11.20;99.90;;;;;;4044564;29;20535;-67
2022/09/22 03:06:19;;;;;;;1.70;1.60;;;11.20;99.90;;;;;;4044824;29;20040;-67
2022/09/22 03:08:19;;;;;;;2.33;1.73;;;11.20;99.90;;;;;;4045087;29;20052;-66
2022/09/22 03:10:20;;;;;;;2.55;1.92;;;11.20;99.90;;;;;;4041468;29;20084;-65
2022/09/22 03:12:21;;;;;;;4.07;1.95;;;11.20;99.90;;;;;;4041194;29;20029;-66
2022/09/22 03:14:21;;;;;;;3.78;2.33;;;11.10;99.90;;;;;;4044926;29;20029;-66
2022/09/22 03:16:22;;;;;;;2.78;2.00;;;11.10;99.90;;;;;;4043850;29;20549;-66
2022/09/22 03:18:23;;;;;;;2.63;1.90;;;11.10;99.90;;;;;;4043953;29;20393;-66
2022/09/22 03:20:23;;;;;;;3.72;1.65;;;11.00;99.90;;;;;;4045088;29;20036;-65
2022/09/22 03:22:24;;;;;;;2.80;1.77;;;11.00;99.90;;;;;;4043339;29;20041;-66
2022/09/22 03:24:24;;;;;;;3.72;2.20;;;11.00;99.90;;;;;;4045013;29;20041;-65
2022/09/22 03:26:25;;;;;;;4.53;2.03;;;11.00;99.90;;;;;;4044516;29;20461;-65
2022/09/22 03:28:25;;;;;;;2.17;1.67;;;11.00;99.90;;;;;;4043849;29;20068;-66
2022/09/22 03:30:26;;;;;;;2.80;2.10;;;10.90;99.90;;;;;;4039381;29;20521;-66
2022/09/22 03:32:27;;;;;;;5.03;1.60;;;10.90;99.90;;;;;;4041310;29;20511;-66
2022/09/22 03:34:27;;;;;;;2.78;1.80;;;10.90;99.90;;;;;;4039978;29;20485;-66
2022/09/22 03:36:28;;;;;;;2.22;1.85;;;11.00;99.90;;;;;;4039549;29;20093;-66
2022/09/22 03:38:29;;;;;;;2.90;1.90;;;10.90;99.90;;;;;;4043282;29;20381;-66
2022/09/22 03:40:29;;;;;;;3.55;2.13;;;10.90;99.90;;;;;;4042151;29;20053;-66
2022/09/22 03:42:31;;;;;;;2.42;1.80;;;10.90;99.90;;;;;;4035897;29;20393;-67
2022/09/22 03:44:32;;;;;;;2.58;1.90;;;10.90;99.90;;;;;;4051823;29;20076;-67
2022/09/22 03:46:33;;;;;;;4.18;2.00;;;10.90;99.90;;;;;;4038489;29;20097;-66
2022/09/22 03:48:34;;;;;;;3.97;1.90;;;10.90;99.90;;;;;;4044825;29;20040;-66
2022/09/22 03:50:34;;;;;;;2.25;1.70;;;10.90;99.90;;;;;;4043966;29;20102;-66
2022/09/22 03:52:35;;;;;;;2.85;1.95;;;10.90;99.90;;;;;;4039775;29;20033;-67
2022/09/22 03:54:36;;;;;;;1.70;1.50;;;10.80;99.90;;;;;;4041335;29;20044;-66
2022/09/22 03:56:37;;;;;;;2.65;1.58;;;10.80;99.90;;;;;;4039190;29;20033;-67
2022/09/22 03:58:39;;;;;;;3.92;1.98;;;10.80;99.90;;;;;;4048369;29;20033;-66
2022/09/22 04:00:39;;;;;;;2.08;1.55;;;10.80;99.90;;;;;;4041889;29;20045;-67
2022/09/22 04:02:40;;;;;;;2.70;2.00;;;10.80;99.90;;;;;;4042799;29;20075;-67
2022/09/22 04:04:41;;;;;;;1.85;1.60;;;10.80;99.90;;;;;;4040150;29;20049;-66
2022/09/22 04:06:42;;;;;;;2.60;1.55;;;10.70;99.90;;;;;;4038284;29;20036;-66
2022/09/22 04:08:42;;;;;;;3.97;1.67;;;10.70;99.90;;;;;;4044808;29;20035;-67
2022/09/22 04:10:44;;;;;;;3.08;2.00;;;10.70;99.90;;;;;;4039365;29;20132;-67
2022/09/22 04:12:45;;;;;;;3.28;2.10;;;10.70;99.90;;;;;;4039670;29;20033;-67
2022/09/22 04:14:45;;;;;;;3.65;1.85;;;10.70;99.90;;;;;;4042752;29;20060;-67
2022/09/22 04:16:46;;;;;;;2.17;1.63;;;10.70;99.90;;;;;;4039087;29;20041;-66
2022/09/22 04:18:46;;;;;;;2.92;1.92;;;10.70;99.90;;;;;;4041002;29;20037;-66
2022/09/22 04:20:47;;;;;;;3.08;1.70;;;10.70;99.90;;;;;;4036801;29;20442;-67
2022/09/22 04:22:47;;;;;;;5.03;1.80;;;10.70;99.90;;;;;;4040893;29;20137;-65
2022/09/22 04:24:48;;;;;;;3.75;1.95;;;10.70;99.90;;;;;;4039756;29;20052;-66
2022/09/22 04:26:49;;;;;;;2.85;1.70;;;10.70;99.90;;;;;;4040733;29;20052;-67
2022/09/22 04:28:49;;;;;;;4.10;2.08;;;10.70;99.90;;;;;;4040662;29;20037;-66
2022/09/22 04:30:50;;;;;;;2.60;1.70;;;10.70;99.90;;;;;;4038729;29;20404;-66
2022/09/22 04:32:50;;;;;;;3.40;2.17;;;10.60;99.90;;;;;;4039093;29;20033;-66
2022/09/22 04:34:51;;;;;;;2.58;1.88;;;10.60;99.90;;;;;;4043865;29;20516;-66
2022/09/22 04:36:51;;;;;;;3.45;1.80;;;10.60;99.90;;;;;;4037230;29;20032;-66
2022/09/22 04:38:52;;;;;;;5.88;2.00;;;10.60;99.90;;;;;;4039581;29;20037;-66
2022/09/22 04:40:53;;;;;;;3.22;2.10;;;10.60;99.90;;;;;;4039199;29;20071;-66
2022/09/22 04:42:53;;;;;;;3.47;2.30;;;10.60;99.90;;;;;;4043901;29;20060;-66
2022/09/22 04:45:00;;;;;;;2.72;2.03;;;10.50;99.90;;;;;;4046958;29;20404;-66
2022/09/22 04:47:01;;;;;;;3.20;2.22;;;10.50;99.90;;;;;;4040037;29;20399;-67
2022/09/22 04:49:02;;;;;;;4.60;2.30;;;10.50;99.90;;;;;;4043496;29;20036;-67
2022/09/22 04:51:03;;;;;;;5.57;2.08;;;10.50;99.90;;;;;;4051314;29;20032;-66
2022/09/22 04:53:04;;;;;;;3.17;2.10;;;10.50;99.90;;;;;;4046242;29;20104;-67
2022/09/22 04:55:05;;;;;;;3.05;1.92;;;10.50;99.90;;;;;;4038991;29;20061;-67
2022/09/22 04:57:06;;;;;;;3.85;2.03;;;10.50;99.90;;;;;;4041860;29;20033;-67
2022/09/22 04:59:07;;;;;;;2.67;2.10;;;10.50;99.90;;;;;;4039650;29;20033;-66
2022/09/22 05:01:07;;;;;;;3.70;2.15;;;10.50;99.90;;;;;;4035584;29;20029;-66
2022/09/22 05:03:10;;;;;;;2.97;2.00;;;10.50;99.90;;;;;;4046101;29;20033;-67
2022/09/22 05:05:11;;;;;;;3.92;2.40;;;10.40;99.90;;;;;;4036081;29;20037;-66
2022/09/22 05:07:12;;;;;;;5.80;2.60;;;10.40;99.90;;;;;;4046716;29;20145;-66
2022/09/22 05:09:13;;;;;;;3.03;2.13;;;10.40;99.90;;;;;;4043734;29;20519;-66
2022/09/22 05:11:13;;;;;;;2.67;2.00;;;10.40;99.90;;;;;;4038531;29;20112;-66
2022/09/22 05:13:14;;;;;;;3.83;2.13;;;10.40;99.90;;;;;;4044022;29;20092;-66
2022/09/22 05:15:15;;;;;;;2.92;2.00;;;10.40;99.90;;;;;;4041740;29;20044;-65
2022/09/22 05:17:15;;;;;;;4.07;1.90;;;10.40;99.90;;;;;;4037996;29;20053;-66
2022/09/22 05:19:16;;;;;;;3.95;2.30;;;10.40;99.90;;;;;;4039501;29;20047;-65
2022/09/22 05:21:17;;;;;;;3.83;2.60;;;10.30;99.90;;;;;;4037870;29;20047;-66
2022/09/22 05:23:18;;;;;;;3.25;2.33;;;10.30;99.90;;;;;;4036431;29;20037;-66
2022/09/22 05:25:19;;;;;;;2.80;2.22;;;10.30;99.90;;;;;;4034437;29;20037;-66
2022/09/22 05:27:19;;;;;;;5.65;2.88;;;10.30;99.90;;;;;;4032522;29;20047;-66
2022/09/22 05:29:20;;;;;;;3.00;2.03;;;10.30;99.90;;;;;;4036562;29;20065;-66
2022/09/22 05:31:20;;;;;;;3.90;2.30;;;10.30;99.90;;;;;;4038445;29;20037;-66
2022/09/22 05:33:21;;;;;;;2.97;1.83;;;10.30;99.90;;;;;;4039202;29;20033;-67
2022/09/22 05:35:23;;;;;;;3.55;2.20;;;10.30;99.90;;;;;;4039811;29;20478;-66
2022/09/22 05:37:24;;;;;;;3.97;2.03;;;10.30;99.90;;;;;;4038347;29;20131;-65
2022/09/22 05:39:24;;;;;;;3.45;1.90;;;10.30;99.90;;;;;;4039244;29;20053;-66
2022/09/22 05:41:25;;;;;;;4.68;2.47;;;10.30;99.90;;;;;;4035953;29;20426;-66
2022/09/22 05:43:26;;;;;;;3.17;1.80;;;10.30;99.90;;;;;;4051397;29;20491;-66
2022/09/22 05:45:27;;;;;;;2.90;1.90;;;10.30;99.90;;;;;;4036806;29;20036;-67
2022/09/22 05:47:27;;;;;;;2.90;1.98;;;10.30;99.90;;;;;;4037967;29;20031;-66
2022/09/22 05:49:28;;;;;;;2.60;1.70;;;10.30;99.90;;;;;;4038092;29;20500;-66
2022/09/22 05:51:28;;;;;;;4.38;2.30;;;10.30;99.90;;;;;;4040533;29;20053;-66
2022/09/22 05:53:29;;;;;;;2.90;2.10;;;10.30;99.90;;;;;;4037884;29;20140;-66
2022/09/22 05:55:30;;;;;;;2.33;1.88;;;10.30;99.90;;;;;;4038059;29;20061;-66
2022/09/22 05:57:31;;;;;;;2.85;1.90;;;10.30;99.90;;;;;;4037135;29;20041;-66
2022/09/22 05:59:31;;;;;;;2.70;1.60;;;10.40;99.90;;;;;;4047183;29;20547;-66
2022/09/22 06:01:32;;;;;;;5.20;2.50;;;10.40;99.90;;;;;;4039186;29;20045;-66
2022/09/22 06:03:32;;;;;;;3.47;2.05;;;10.40;99.90;;;;;;4035665;29;20057;-66
2022/09/22 06:05:33;;;;;;;4.43;2.22;;;10.40;99.90;;;;;;4039208;29;20548;-66
2022/09/22 06:07:34;;;;;;;4.93;2.53;;;10.40;99.90;;;;;;4039896;29;20500;-67
2022/09/22 06:09:34;;;;;;;3.20;2.15;;;10.40;99.90;;;;;;4040720;29;20060;-66
2022/09/22 06:11:35;;;;;;;3.13;2.20;;;10.40;99.90;;;;;;4041077;29;20084;-67
2022/09/22 06:13:36;;;;;;;3.58;2.38;;;10.40;99.90;;;;;;4039981;29;20074;-66
2022/09/22 06:15:37;;;;;;;5.00;2.50;;;10.40;99.90;;;;;;4041549;29;20135;-66
2022/09/22 06:17:38;;;;;;;4.25;2.28;;;10.30;99.90;;;;;;4040013;29;20119;-66
2022/09/22 06:19:39;;;;;;;3.50;2.10;;;10.30;99.90;;;;;;4040159;29;20048;-66
2022/09/22 06:21:39;;;;;;;3.17;2.40;;;10.30;99.90;;;;;;4040205;29;20057;-66
2022/09/22 06:23:40;;;;;;;4.38;2.63;;;10.30;99.90;;;;;;4041254;29;20048;-67
2022/09/22 06:25:42;;;;;;;5.60;2.25;;;10.30;99.90;;;;;;4039382;29;20495;-66
2022/09/22 06:27:42;;;;;;;5.65;2.45;;;10.30;99.90;;;;;;4039756;29;20048;-66
2022/09/22 06:29:43;;;;;;;5.50;2.72;;;10.40;99.90;;;;;;4041510;29;20059;-66
2022/09/22 06:31:44;;;;;;;5.68;2.75;;;10.60;99.90;;;;;;4040935;29;20030;-66
2022/09/22 06:33:47;;;;;;;4.13;2.47;;;10.70;99.90;;;;;;4040884;29;20049;-66
2022/09/22 06:35:47;;;;;;;6.35;2.67;;;10.90;99.90;;;;;;4062033;29;20040;-66
2022/09/22 06:37:55;;;;;;;6.75;3.00;;;11.10;99.90;;;;;;4040047;29;20052;-66
2022/09/22 06:39:56;;;;;;;5.95;3.47;;;11.40;99.90;;;;;;4039794;29;20035;-67
2022/09/22 06:41:57;;;;;;;7.20;3.40;;;11.60;99.90;;;;;;4039791;29;20032;-68
2022/09/22 06:43:58;;;;;;;7.53;3.55;;;11.90;99.90;;;;;;4040351;29;20397;-66
2022/09/22 06:46:01;;;;;;;7.25;3.20;;;12.10;99.90;;;;;;4034848;29;20033;-67
2022/09/22 06:48:02;;;;;;;6.18;2.85;;;12.40;99.90;;;;;;4053870;29;20401;-67
2022/09/22 06:50:04;;;;;;;3.72;2.75;;;12.60;99.90;;;;;;4039701;29;20082;-69
2022/09/22 06:52:09;;;;;;;7.55;3.95;;;12.80;99.90;;;;;;4037847;29;20049;-67
2022/09/22 06:54:10;;;;;;;7.47;3.45;;;13.00;99.90;;;;;;4054858;29;20087;-66
2022/09/22 06:56:11;;;;;;;5.25;3.28;;;13.10;99.90;;;;;;4035705;29;20052;-67
2022/09/22 06:58:13;;;;;;;6.50;3.22;;;13.20;99.90;;;;;;4042096;29;20072;-67
2022/09/22 07:00:15;;;;;;;5.53;3.10;;;13.40;99.90;;;;;;4035380;29;20074;-67
2022/09/22 07:02:15;;;;;;;5.38;3.33;;;13.50;99.90;;;;;;4038096;29;20055;-67
2022/09/22 07:04:16;;;;;;;5.75;2.90;;;13.50;99.90;;;;;;4038252;29;20080;-66
2022/09/22 07:06:17;;;;;;;5.70;3.35;;;13.70;99.90;;;;;;4038567;29;20085;-68
2022/09/22 07:08:19;;;;;;;5.18;2.70;;;13.70;99.90;;;;;;4055867;29;20386;-67
2022/09/22 07:10:19;;;;;;;6.50;2.83;;;13.90;99.90;;;;;;4038237;29;20037;-66
2022/09/22 07:12:21;;;;;;;6.25;2.97;;;14.10;99.90;;;;;;4035201;29;20076;-67
2022/09/22 07:14:23;;;;;;;5.20;2.83;;;14.20;99.90;;;;;;4037052;29;20036;-66
2022/09/22 07:16:25;;;;;;;4.63;2.65;;;14.30;99.90;;;;;;4049526;29;20081;-66
2022/09/22 07:18:26;;;;;;;6.55;3.10;;;14.50;99.90;;;;;;4038846;29;20116;-67
2022/09/22 07:20:27;;;;;;;6.05;3.35;;;14.70;99.90;;;;;;4040885;29;20520;-67
2022/09/22 07:22:28;;;;;;;4.85;2.80;;;14.80;99.90;;;;;;4042043;29;20053;-66
2022/09/22 07:24:29;;;;;;;4.97;2.92;;;15.00;99.90;;;;;;4041767;29;20052;-67
2022/09/22 07:26:35;;;;;;;5.68;2.70;;;15.20;99.90;;;;;;4036873;29;20036;-68
2022/09/22 07:28:36;;;;;;;6.03;2.78;;;15.40;99.90;;;;;;4037366;29;20059;-66
2022/09/22 07:30:39;;;;;;;6.07;2.88;;;15.50;99.90;;;;;;4052689;29;20041;-67
2022/09/22 07:32:39;;;;;;;4.25;2.92;;;15.60;99.90;;;;;;4042965;29;21122;-66
2022/09/22 07:34:40;;;;;;;4.25;2.67;;;15.80;99.90;;;;;;4038998;29;20112;-66
2022/09/22 07:36:40;;;;;;;4.68;2.70;;;16.10;99.90;;;;;;4040493;29;20124;-66
2022/09/22 07:38:42;;;;;;;10.15;3.40;;;16.30;99.90;;;;;;4041138;29;20104;-66
2022/09/22 07:40:51;;;;;;;6.45;2.75;;;16.50;99.90;;;;;;4039143;29;20425;-66
2022/09/22 07:42:53;;;;;;;4.22;2.20;;;16.80;99.90;;;;;;4035762;29;20056;-67
2022/09/22 07:45:11;;;;;;;4.00;2.40;;;17.00;99.90;;;;;;4037213;29;20457;-67
2022/09/22 07:47:12;;;;;;;4.53;2.20;;;17.30;99.90;;;;;;4039115;29;21238;-66
2022/09/22 07:49:14;;;;;;;6.20;2.83;;;17.60;99.90;;;;;;4040734;29;20056;-66
2022/09/22 07:51:20;;;;;;;6.20;2.80;;;17.90;99.90;;;;;;4048362;29;20038;-66
2022/09/22 07:53:21;;;;;;;6.03;2.60;;;18.20;99.90;;;;;;4038237;29;20037;-67
2022/09/22 07:55:23;;;;;;;4.78;2.60;;;18.40;99.90;;;;;;4035389;29;20044;-66
2022/09/22 07:57:24;;;;;;;6.43;3.22;;;18.50;99.60;;;;;;4034699;29;20032;-66
2022/09/22 07:59:25;;;;;;;9.07;2.67;;;18.60;99.80;;;;;;4040673;29;20121;-66
2022/09/22 08:01:26;;;;;;;5.82;3.08;;;18.70;99.20;;;;;;4039018;29;20036;-66
2022/09/22 08:03:26;;;;;;;5.72;2.60;;;18.70;98.50;;;;;;4038194;29;20493;-65
2022/09/22 08:05:28;;;;;;;3.75;2.20;;;18.80;99.50;;;;;;4040014;29;20045;-66
2022/09/22 08:07:36;;;;;;;5.28;2.45;;;18.70;98.10;;;;;;4039200;29;20131;-66
2022/09/22 08:09:36;;;;;;;4.80;2.88;;;18.80;99.60;;;;;;4037124;29;20044;-66
2022/09/22 08:11:37;;;;;;;7.32;2.97;;;18.80;98.00;;;;;;4034717;29;20040;-66
2022/09/22 08:13:43;;;;;;;4.30;2.40;;;18.80;98.30;;;;;;4038238;29;20073;-66
2022/09/22 08:15:55;;;;;;;5.72;3.00;;;18.80;97.80;;;;;;4039476;29;20476;-65
2022/09/22 08:17:56;;;;;;;5.03;2.67;;;18.70;97.50;;;;;;4042698;29;20037;-65
2022/09/22 08:20:00;;;;;;;5.00;2.80;;;18.80;98.40;;;;;;4038240;29;20044;-65
2022/09/22 08:22:00;;;;;;;5.38;2.80;;;18.80;98.70;;;;;;4051667;29;20261;-65
2022/09/22 08:24:02;;;;;;;7.00;2.88;;;18.80;98.50;;;;;;4040694;29;20515;-63
2022/09/22 08:26:06;;;;;;;5.43;3.03;;;18.90;98.40;;;;;;4036998;29;20567;-65
2022/09/22 08:28:06;;;;;;;7.55;2.83;;;18.90;97.80;;;;;;4039759;29;20028;-65
2022/09/22 08:30:09;;;;;;;4.75;2.92;;;18.80;97.80;;;;;;4039948;29;20531;-66
2022/09/22 08:32:10;;;;;;;5.32;2.70;;;18.90;97.30;;;;;;4039437;29;20040;-65
2022/09/22 08:34:16;;;;;;;5.50;2.90;;;18.90;97.60;;;;;;4038869;29;20128;-65
2022/09/22 08:36:17;;;;;;;10.60;3.58;;;19.00;97.80;;;;;;4053416;29;20472;-65
2022/09/22 08:38:17;;;;;;;5.88;2.70;;;19.00;98.10;;;;;;4039973;29;20084;-65
2022/09/22 08:40:22;;;;;;;5.85;2.63;;;19.10;98.20;;;;;;4040314;29;20040;-65
2022/09/22 08:42:23;;;;;;;6.05;3.10;;;19.10;98.10;;;;;;4038833;29;20485;-64
2022/09/22 08:44:32;;;;;;;3.45;2.47;;;19.10;97.90;;;;;;4040108;29;20056;-68
2022/09/22 08:46:38;;;;;;;5.55;2.30;;;19.10;98.20;;;;;;4038033;29;20063;-65
2022/09/22 08:53:31;;;;;;;6.15;2.85;;;19.20;97.00;;;;;;4038765;29;20040;-65
2022/09/22 08:55:32;;;;;;;3.10;2.10;;;19.20;97.70;;;;;;4040185;29;20041;-65
2022/09/22 08:57:59;;;;;;;5.22;2.35;;;19.20;97.70;;;;;;4040340;29;20083;-65
2022/09/22 09:00:16;;;;;;;3.92;2.80;;;19.20;97.10;;;;;;4042060;29;20033;-65
2022/09/22 09:02:37;;;;;;;4.93;2.70;;;19.20;97.00;;;;;;4040026;29;20037;-64
2022/09/22 09:04:43;;;;;;;3.90;2.42;;;19.10;97.60;;;;;;4035832;29;20048;-64
2022/09/22 09:07:21;;;;;;;5.40;2.65;;;19.20;97.00;;;;;;4039049;29;20032;-65
2022/09/22 09:09:39;;;;;;;5.60;2.33;;;19.00;96.70;;;;;;4039897;29;20045;-64
2022/09/22 09:11:56;;;;;;;3.90;2.60;;;19.00;97.60;;;;;;4035508;29;20732;-64
2022/09/22 09:14:35;;;;;;;4.18;2.22;;;19.00;98.10;;;;;;4056376;29;20115;-64
2022/09/22 09:16:57;;;;;;;5.10;2.33;;;19.10;96.90;;;;;;4040461;29;20041;-64
2022/09/22 09:19:09;;;;;;;4.85;2.45;;;19.10;96.80;;;;;;4038439;29;20112;-64
2022/09/22 09:21:14;;;;;;;4.47;2.10;;;19.10;97.80;;;;;;4048384;29;20055;-64
2022/09/22 09:23:30;;;;;;;4.95;2.35;;;19.10;97.10;;;;;;4037058;29;20121;-65
2022/09/22 09:25:41;;;;;;;3.53;2.17;;;19.20;97.40;;;;;;4039270;29;20045;-65
2022/09/22 09:27:45;;;;;;;4.25;2.30;;;19.20;97.10;;;;;;4037800;29;20761;-65
2022/09/22 09:30:10;;;;;;;3.83;2.13;;;19.20;96.70;;;;;;4051480;29;20163;-64
2022/09/22 09:32:33;;;;;;;3.78;2.15;;;19.30;96.50;;;;;;4040636;29;20035;-64
2022/09/22 09:34:33;;;;;;;5.85;3.20;;;19.30;96.00;;;;;;4049312;29;20562;-65
2022/09/22 09:36:38;;;;;;;3.63;2.17;;;19.30;96.30;;;;;;4038872;29;20079;-65
2022/09/22 09:38:46;;;;;;;5.00;2.90;;;19.30;96.70;;;;;;4038415;29;20072;-65
2022/09/22 09:40:54;;;;;;;3.38;1.63;;;19.40;96.60;;;;;;4052202;29;20415;-65
2022/09/22 09:43:02;;;;;;;4.97;2.40;;;19.40;96.40;;;;;;4039858;29;20021;-68
2022/09/22 09:45:04;;;;;;;4.40;2.50;;;19.40;96.40;;;;;;4039081;29;20037;-65
2022/09/22 09:47:17;;;;;;;9.13;2.85;;;19.50;96.80;;;;;;4041677;29;20040;-65
2022/09/22 09:49:22;;;;;;;3.72;2.42;;;19.50;96.90;;;;;;4045422;29;20048;-65
2022/09/22 09:51:23;;;;;;;8.50;2.40;;;19.50;95.80;;;;;;4041232;29;20084;-65
2022/09/22 09:53:30;;;;;;;3.78;2.13;;;19.50;95.50;;;;;;4039834;29;20139;-65
2022/09/22 09:55:32;;;;;;;3.20;1.90;;;19.60;94.40;;;;;;4040393;29;20055;-65
2022/09/22 09:57:32;;;;;;;4.30;2.33;;;19.60;94.80;;;;;;4052087;29;20470;-65
2022/09/22 10:01:56;;;;;;;3.53;2.30;;;19.60;95.10;;;;;;4039036;29;20032;-65
2022/09/22 10:03:57;;;;;;;3.95;2.60;;;19.60;94.60;;;;;;4042058;29;20053;-65
2022/09/22 10:06:05;;;;;;;3.10;2.05;;;19.70;94.40;;;;;;4041090;29;20051;-66
2022/09/22 10:08:22;;;;;;;4.30;2.38;;;19.60;94.60;;;;;;4044026;29;20111;-65
2022/09/22 10:10:31;;;;;;;4.38;2.10;;;19.60;94.10;;;;;;4039574;29;20052;-65
2022/09/22 10:12:32;;;;;;;4.80;1.95;;;19.60;94.00;;;;;;4039475;29;20112;-66
2022/09/22 10:14:34;;;;;;;3.00;1.70;;;19.70;95.10;;;;;;4041616;29;20092;-66
2022/09/22 10:16:35;;;;;;;2.15;1.50;;;19.70;93.70;;;;;;4041484;29;20037;-65
2022/09/22 10:18:39;;;;;;;3.30;1.73;;;19.80;94.00;;;;;;4052522;29;20047;-65
2022/09/22 10:20:40;;;;;;;3.30;1.50;;;19.80;94.20;;;;;;4036841;29;20065;-65
2022/09/22 10:22:41;;;;;;;2.03;1.25;;;19.90;93.50;;;;;;4038160;29;20522;-65
2022/09/22 10:25:01;;;;;;;2.63;1.33;;;19.90;93.10;;;;;;4039055;29;20040;-65
2022/09/22 10:27:02;;;;;;;2.53;1.30;;;19.90;93.60;;;;;;4039408;29;20041;-65
2022/09/22 10:29:12;;;;;;;3.90;1.38;;;19.90;91.10;;;;;;4054358;29;20130;-66
2022/09/22 10:31:23;;;;;;;2.25;1.10;;;20.00;92.10;;;;;;4039458;29;20569;-66
2022/09/22 10:33:24;;;;;;;3.65;1.23;;;20.00;91.40;;;;;;4038819;29;20115;-65
2022/09/22 10:35:29;;;;;;;1.58;0.93;;;20.00;92.10;;;;;;4053151;29;20047;-66
2022/09/22 10:37:30;;;;;;;1.95;1.13;;;20.10;91.20;;;;;;4041251;29;20400;-66
2022/09/22 10:39:43;;;;;;;1.55;1.05;;;20.10;90.60;;;;;;4039867;29;20039;-66
2022/09/22 10:41:45;;;;;;;3.17;1.55;;;20.10;90.10;;;;;;4041135;29;20086;-65
2022/09/22 10:44:01;;;;;;;;;;;20.10;90.00;;;;;;4041946;29;20485;-66
2022/09/22 10:46:33;;;;;;;2.58;1.38;;;20.10;88.00;;;;;;4038676;29;20003;-66
2022/09/22 10:48:52;;;;;;;3.78;1.30;;;20.10;89.10;;;;;;4039057;29;20033;-66
2022/09/22 10:51:19;;;;;;;2.25;1.48;;;20.10;90.20;;;;;;4040873;29;20049;-65
2022/09/22 10:53:31;;;;;;;1.77;1.10;;;20.00;88.20;;;;;;4039124;29;20040;-66
2022/09/22 10:55:45;;;;;;;1.42;1.10;;;20.10;87.90;;;;;;4039523;29;20057;-66
2022/09/22 10:58:03;;;;;;;2.80;1.45;;;20.10;89.00;;;;;;4036637;29;20025;-65